createdAt,value
2022-10-19T00:01:26.168Z,82.00
2022-10-19T00:06:32.756Z,82.20
2022-10-19T00:11:38.104Z,82.40
2022-10-19T00:16:42.676Z,82.60
2022-10-19T00:21:47.601Z,82.90
2022-10-19T00:26:51.010Z,82.90
2022-10-19T00:31:54.320Z,83.10
2022-10-19T00:36:58.930Z,82.90
2022-10-19T00:42:02.432Z,82.80
2022-10-19T00:47:09.540Z,82.70
2022-10-19T00:52:17.625Z,82.50
2022-10-19T00:57:22.155Z,82.30
2022-10-19T01:02:25.441Z,82.00
2022-10-19T01:07:30.194Z,81.60
2022-10-19T01:12:56.740Z,81.70
2022-10-19T01:18:07.919Z,81.50
2022-10-19T01:23:42.954Z,81.50
2022-10-19T01:28:58.314Z,81.50
2022-10-19T01:34:09.784Z,81.60
2022-10-19T01:39:22.349Z,81.70
2022-10-19T01:44:32.416Z,81.50
2022-10-19T01:49:44.113Z,82.30
2022-10-19T01:54:51.195Z,82.50
2022-10-19T01:59:57.034Z,82.90
2022-10-19T02:05:03.971Z,83.40
2022-10-19T02:10:08.937Z,83.70
2022-10-19T02:15:15.878Z,84.20
2022-10-19T02:20:21.272Z,84.40
2022-10-19T02:25:26.088Z,84.40
2022-10-19T02:30:29.688Z,84.10
2022-10-19T02:35:34.645Z,84.20
2022-10-19T02:40:42.677Z,84.20
2022-10-19T02:45:51.589Z,84.30
2022-10-19T02:50:56.225Z,84.20
2022-10-19T02:55:59.563Z,84.20
2022-10-19T03:01:03.151Z,84.50
2022-10-19T03:06:08.062Z,84.60
2022-10-19T03:11:11.644Z,84.70
2022-10-19T03:16:15.558Z,84.60
2022-10-19T03:21:20.568Z,84.50
2022-10-19T03:26:23.827Z,84.50
2022-10-19T03:31:27.525Z,84.20
2022-10-19T03:36:33.595Z,84.10
2022-10-19T03:41:37.716Z,83.80
2022-10-19T03:46:41.562Z,83.20
2022-10-19T03:51:46.232Z,82.70
2022-10-19T03:56:49.492Z,82.90
2022-10-19T04:01:53.004Z,82.90
2022-10-19T04:06:57.633Z,82.80
2022-10-19T04:12:00.953Z,82.90
2022-10-19T04:17:04.406Z,82.50
2022-10-19T04:22:09.042Z,82.70
2022-10-19T04:27:12.329Z,82.80
2022-10-19T04:32:15.643Z,83.00
2022-10-19T04:37:20.287Z,82.90
2022-10-19T04:42:23.556Z,82.80
2022-10-19T04:47:27.100Z,82.90
2022-10-19T04:52:32.007Z,83.40
2022-10-19T04:57:35.565Z,83.40
2022-10-19T05:02:43.482Z,83.20
2022-10-19T05:07:50.082Z,83.40
2022-10-19T05:12:53.348Z,83.00
2022-10-19T05:17:59.205Z,82.80
2022-10-19T05:23:06.386Z,82.40
2022-10-19T05:28:10.941Z,82.20
2022-10-19T05:33:14.323Z,81.70
2022-10-19T05:38:18.915Z,81.20
2022-10-19T05:43:22.661Z,81.20
2022-10-19T05:48:26.161Z,80.90
2022-10-19T05:53:31.149Z,80.40
2022-10-19T05:58:35.220Z,80.40
2022-10-19T06:03:38.734Z,80.60
2022-10-19T06:08:43.476Z,80.70
2022-10-19T06:13:50.332Z,80.40
2022-10-19T06:18:54.810Z,80.00
2022-10-19T06:24:01.579Z,80.10
2022-10-19T06:29:05.433Z,80.00
2022-10-19T06:34:08.904Z,79.80
2022-10-19T06:39:13.817Z,80.20
2022-10-19T06:44:17.099Z,80.40
2022-10-19T06:49:20.673Z,80.70
2022-10-19T06:54:25.934Z,80.60
2022-10-19T06:59:29.186Z,80.60
2022-10-19T07:04:32.448Z,80.80
2022-10-19T07:09:37.138Z,81.10
2022-10-19T07:14:40.574Z,80.70
2022-10-19T07:19:43.857Z,80.40
2022-10-19T07:24:48.895Z,80.10
2022-10-19T07:29:52.393Z,79.80
2022-10-19T07:34:55.796Z,79.50
2022-10-19T07:40:00.464Z,79.40
2022-10-19T07:45:04.115Z,79.70
2022-10-19T07:50:07.686Z,79.60
2022-10-19T07:55:12.596Z,79.60
2022-10-19T08:00:16.326Z,78.80
2022-10-19T08:05:20.144Z,78.30
2022-10-19T08:10:24.851Z,78.00
2022-10-19T08:15:30.619Z,78.00
2022-10-19T08:20:33.928Z,77.50
2022-10-19T08:25:38.777Z,77.10
2022-10-19T08:30:42.395Z,76.40
2022-10-19T08:35:45.711Z,77.00
2022-10-19T08:40:50.363Z,76.30
2022-10-19T08:46:02.228Z,75.90
2022-10-19T08:51:09.284Z,76.70
2022-10-19T08:56:50.898Z,75.80
2022-10-19T09:02:01.884Z,75.90
2022-10-19T09:07:27.382Z,76.10
2022-10-19T09:12:43.445Z,75.50
2022-10-19T09:17:47.024Z,74.70
2022-10-19T09:23:05.926Z,73.90
2022-10-19T09:28:36.435Z,73.60
2022-10-19T09:33:44.967Z,73.50
2022-10-19T09:38:50.225Z,73.40
2022-10-19T09:43:56.579Z,72.70
2022-10-19T09:49:01.519Z,71.90
2022-10-19T09:54:05.483Z,71.90
2022-10-19T09:59:23.481Z,72.40
2022-10-19T10:04:26.814Z,70.80
2022-10-19T10:09:30.842Z,70.60
2022-10-19T10:14:39.744Z,69.50
2022-10-19T10:19:52.761Z,69.70
2022-10-19T10:24:57.078Z,69.20
2022-10-19T10:30:07.177Z,69.40
2022-10-19T10:35:20.478Z,69.50
2022-10-19T10:40:27.671Z,69.00
2022-10-19T10:45:34.980Z,68.40
2022-10-19T10:50:39.210Z,67.20
2022-10-19T10:55:56.018Z,67.10
2022-10-19T11:01:07.688Z,66.90
2022-10-19T11:06:13.248Z,65.80
2022-10-19T11:11:20.696Z,66.40
2022-10-19T11:16:29.988Z,66.80
2022-10-19T11:21:38.739Z,66.40
2022-10-19T11:27:00.958Z,64.60
2022-10-19T11:32:16.044Z,63.80
2022-10-19T11:37:29.643Z,64.00
2022-10-19T11:42:50.620Z,63.10
2022-10-19T11:48:19.830Z,63.10
2022-10-19T11:53:32.409Z,58.80
2022-10-19T11:58:46.585Z,58.30
2022-10-19T12:04:13.186Z,60.00
2022-10-19T12:09:28.130Z,61.20
2022-10-19T12:14:34.726Z,62.50
2022-10-19T12:19:43.809Z,63.10
2022-10-19T12:24:47.299Z,63.50
2022-10-19T12:29:51.210Z,63.10
2022-10-19T12:35:03.381Z,63.80
2022-10-19T12:40:14.011Z,64.00
2022-10-19T12:45:27.149Z,65.40
2022-10-19T12:51:06.107Z,64.80
2022-10-19T12:56:16.942Z,65.20
2022-10-19T13:01:24.222Z,65.90
2022-10-19T13:06:35.032Z,66.10
2022-10-19T13:12:22.236Z,66.40
2022-10-19T13:17:44.090Z,66.50
2022-10-19T13:22:49.262Z,66.60
2022-10-19T13:27:55.761Z,66.90
2022-10-19T13:33:00.459Z,66.80
2022-10-19T13:38:27.368Z,67.00
2022-10-19T13:43:33.481Z,67.30
2022-10-19T13:49:17.180Z,67.50
2022-10-19T13:54:41.875Z,67.20
2022-10-19T14:00:07.047Z,67.60
2022-10-19T14:05:39.551Z,68.00
2022-10-19T14:11:00.201Z,67.80
2022-10-19T14:16:04.397Z,67.90
2022-10-19T14:21:10.641Z,67.70
2022-10-19T14:26:24.160Z,67.60
2022-10-19T14:31:35.352Z,67.20
2022-10-19T14:36:44.667Z,68.00
2022-10-19T14:41:48.177Z,68.30
2022-10-19T14:46:51.550Z,68.40
2022-10-19T14:52:00.123Z,68.30
2022-10-19T14:57:06.215Z,68.50
2022-10-19T15:02:18.795Z,68.50
2022-10-19T15:07:27.779Z,68.20
2022-10-19T15:12:36.901Z,68.20
2022-10-19T15:17:51.539Z,68.40
2022-10-19T15:22:57.378Z,68.20
2022-10-19T15:28:20.583Z,68.30
2022-10-19T15:33:23.913Z,68.50
2022-10-19T15:38:31.314Z,68.40
2022-10-19T15:43:43.933Z,68.70
2022-10-19T15:48:51.209Z,68.90
2022-10-19T15:54:00.006Z,69.10
2022-10-19T15:59:05.428Z,69.20
2022-10-19T16:04:08.748Z,69.40
2022-10-19T16:09:19.373Z,69.30
2022-10-19T16:14:22.928Z,69.10
2022-10-19T16:19:26.540Z,69.00
2022-10-19T16:24:31.377Z,69.00
2022-10-19T16:29:34.969Z,68.90
2022-10-19T16:34:38.669Z,69.10
2022-10-19T16:39:43.425Z,69.40
2022-10-19T16:44:46.665Z,69.40
2022-10-19T16:49:57.926Z,69.40
2022-10-19T16:55:02.549Z,69.40
2022-10-19T17:00:09.436Z,69.50
2022-10-19T17:05:12.831Z,70.20
2022-10-19T17:10:17.947Z,70.80
2022-10-19T17:15:41.964Z,71.00
2022-10-19T17:20:45.078Z,71.20
2022-10-19T17:25:50.642Z,71.20
2022-10-19T17:30:54.352Z,71.20
2022-10-19T17:36:03.244Z,71.30
2022-10-19T17:41:09.702Z,71.30
2022-10-19T17:46:14.821Z,71.10
2022-10-19T17:51:20.077Z,71.00
2022-10-19T17:56:25.408Z,71.10
2022-10-19T18:01:29.051Z,71.10
2022-10-19T18:06:34.890Z,71.10
2022-10-19T18:11:42.784Z,71.20
2022-10-19T18:16:47.410Z,71.20
2022-10-19T18:21:52.468Z,71.30
2022-10-19T18:26:57.743Z,71.40
2022-10-19T18:32:01.609Z,71.50
2022-10-19T18:37:05.538Z,71.60
2022-10-19T18:42:12.742Z,72.00
2022-10-19T18:47:16.203Z,72.20
2022-10-19T18:52:19.701Z,72.40
2022-10-19T18:57:27.216Z,72.50
2022-10-19T19:02:46.488Z,72.50
2022-10-19T19:07:51.100Z,72.70
2022-10-19T19:12:55.740Z,73.10
2022-10-19T19:18:02.786Z,73.50
2022-10-19T19:23:06.512Z,73.90
2022-10-19T19:28:11.671Z,73.90
2022-10-19T19:33:18.312Z,73.90
2022-10-19T19:38:22.103Z,73.90
2022-10-19T19:43:27.141Z,74.00
2022-10-19T19:48:31.080Z,74.00
2022-10-19T19:53:34.474Z,74.00
2022-10-19T19:58:40.061Z,74.20
2022-10-19T20:03:43.539Z,74.30
2022-10-19T20:08:47.554Z,74.40
2022-10-19T20:13:52.678Z,74.60
2022-10-19T20:19:00.057Z,75.00
2022-10-19T20:24:03.577Z,75.40
2022-10-19T20:29:08.374Z,75.60
2022-10-19T20:34:14.240Z,75.50
2022-10-19T20:39:17.637Z,75.50
2022-10-19T20:44:22.398Z,75.40
2022-10-19T20:49:25.850Z,75.30
2022-10-19T20:54:29.316Z,75.00
2022-10-19T20:59:34.388Z,74.40
2022-10-19T21:04:38.082Z,74.30
2022-10-19T21:09:41.391Z,74.10
2022-10-19T21:14:46.064Z,74.10
2022-10-19T21:19:49.535Z,73.70
2022-10-19T21:24:53.053Z,73.40
2022-10-19T21:29:58.511Z,73.10
2022-10-19T21:35:02.483Z,72.70
2022-10-19T21:40:06.603Z,72.20
2022-10-19T21:45:29.163Z,71.90
2022-10-19T21:50:33.782Z,72.00
2022-10-19T21:55:37.754Z,71.80
2022-10-19T22:00:43.116Z,71.50
2022-10-19T22:05:51.403Z,71.40
2022-10-19T22:10:54.729Z,71.30
2022-10-19T22:16:04.863Z,71.40
2022-10-19T22:21:10.081Z,71.20
2022-10-19T22:26:15.545Z,71.00
2022-10-19T22:31:20.189Z,70.90
2022-10-19T22:36:23.714Z,70.90
2022-10-19T22:41:27.132Z,70.90
2022-10-19T22:46:31.854Z,70.90
2022-10-19T22:51:35.371Z,70.90
2022-10-19T22:56:39.452Z,70.70
2022-10-19T23:01:44.366Z,70.70
2022-10-19T23:06:48.114Z,70.60
2022-10-19T23:11:51.411Z,70.50
2022-10-19T23:16:56.029Z,70.40
2022-10-19T23:21:59.409Z,70.30
2022-10-19T23:27:02.907Z,70.30
2022-10-19T23:32:07.851Z,70.30
2022-10-19T23:37:11.175Z,70.30
2022-10-19T23:42:14.449Z,70.20
2022-10-19T23:47:19.078Z,70.20
2022-10-19T23:52:22.373Z,70.10
2022-10-19T23:57:25.878Z,70.20
